Time;durP1;ratioP1;P1;durP2;ratioP2;P2;SDS_P1;SDS_P2;PMS_P1;PMS_P2;Temp;Humidity;BMP_temperature;BMP_pressure;BME280_temperature;BME280_humidity;BME280_pressure;Samples;Min_cycle;Max_cycle;Signal;HPM_P1;HPM_P2
2021/11/09 00:01:25;;;;;;;19.10;4.25;;;;;;;5.06;70.89;98408.97;4908443;29;20040;-89
2021/11/09 00:04:04;;;;;;;24.20;6.03;;;;;;;4.99;70.57;98400.44;4919736;29;20031;-94
2021/11/09 00:06:38;;;;;;;19.40;4.95;;;;;;;4.84;70.58;98385.28;4939049;29;20051;-86
2021/11/09 00:09:10;;;;;;;14.40;4.40;;;;;;;4.88;70.62;98380.88;4905710;29;20031;-90
2021/11/09 00:11:37;;;;;;;9.82;4.15;;;;;;;5.07;70.76;98410.63;4922837;29;20091;-87
2021/11/09 00:14:04;;;;;;;8.25;3.00;;;;;;;5.04;71.04;98399.56;4937053;29;20524;-93
2021/11/09 00:16:32;;;;;;;9.38;3.60;;;;;;;5.11;70.92;98399.97;4938295;29;20039;-87
2021/11/09 00:19:00;;;;;;;5.70;2.40;;;;;;;5.02;69.97;98407.97;4893854;29;20044;-91
2021/11/09 00:21:27;;;;;;;3.00;2.10;;;;;;;4.99;70.19;98410.47;4886950;29;20498;-85
2021/11/09 00:23:54;;;;;;;6.18;2.20;;;;;;;5.01;69.92;98405.59;4919218;29;20130;-91
2021/11/09 00:26:23;;;;;;;6.68;2.33;;;;;;;4.90;69.94;98389.53;4922743;29;20146;-91
2021/11/09 00:28:49;;;;;;;3.97;2.20;;;;;;;5.13;70.20;98403.16;4934028;29;20075;-88
2021/11/09 00:31:16;;;;;;;4.25;2.33;;;;;;;5.11;70.16;98408.91;4900376;29;20074;-91
2021/11/09 00:33:43;;;;;;;2.88;1.90;;;;;;;4.97;69.77;98402.66;4933055;29;20072;-88
2021/11/09 00:36:10;;;;;;;4.75;2.45;;;;;;;4.87;69.95;98400.16;4901548;29;20087;-88
2021/11/09 00:38:36;;;;;;;4.00;2.08;;;;;;;5.00;70.50;98420.22;4913079;29;20135;-88
2021/11/09 00:41:04;;;;;;;6.55;2.47;;;;;;;5.00;70.22;98421.03;4922043;29;20050;-87
2021/11/09 00:43:31;;;;;;;3.70;2.30;;;;;;;4.91;70.38;98401.16;4908118;29;20564;-90
2021/11/09 00:45:58;;;;;;;3.67;2.40;;;;;;;4.91;70.82;98412.78;4940504;29;20067;-92
2021/11/09 00:48:24;;;;;;;8.52;2.95;;;;;;;4.92;71.14;98421.69;4916477;29;20087;-89
2021/11/09 00:50:53;;;;;;;4.55;2.40;;;;;;;4.85;71.73;98424.00;4960500;29;20012;-89
2021/11/09 00:53:22;;;;;;;3.58;2.30;;;;;;;4.89;72.42;98427.72;4939827;29;20074;-86
2021/11/09 00:55:49;;;;;;;5.38;2.90;;;;;;;4.72;72.00;98407.41;4926657;29;20040;-87
2021/11/09 00:58:15;;;;;;;4.88;2.70;;;;;;;4.56;72.18;98389.03;4943704;29;20047;-87
2021/11/09 01:00:45;;;;;;;4.05;2.35;;;;;;;4.75;72.35;98416.84;4937945;29;20042;-88
2021/11/09 01:03:12;;;;;;;4.43;2.47;;;;;;;4.86;72.77;98441.84;4937383;29;20422;-87
2021/11/09 01:05:41;;;;;;;3.53;2.05;;;;;;;4.85;72.73;98438.34;4920506;29;20066;-92
2021/11/09 01:08:09;;;;;;;5.63;2.28;;;;;;;4.78;73.10;98445.25;4952433;29;20087;-89
2021/11/09 01:10:40;;;;;;;8.65;2.30;;;;;;;4.64;74.15;98442.50;4886567;29;20521;-95
2021/11/09 01:13:08;;;;;;;4.40;2.13;;;;;;;4.68;74.35;98457.03;4892010;29;20040;-87
2021/11/09 01:15:39;;;;;;;3.63;2.10;;;;;;;4.66;74.93;98448.41;4903107;29;20044;-91
2021/11/09 01:18:08;;;;;;;4.25;2.50;;;;;;;4.66;75.31;98459.22;4893009;29;20036;-88
2021/11/09 01:20:35;;;;;;;;;;;;;;;4.59;75.32;98454.19;4905259;29;20047;-92
2021/11/09 01:23:03;;;;;;;7.95;2.65;;;;;;;4.62;75.60;98452.81;4904893;29;20582;-87
2021/11/09 01:25:32;;;;;;;5.22;2.40;;;;;;;4.70;75.40;98465.66;4933428;29;20075;-87
2021/11/09 01:28:00;;;;;;;10.30;3.28;;;;;;;4.64;75.52;98458.75;4888856;29;20079;-88
2021/11/09 01:30:27;;;;;;;7.43;3.10;;;;;;;4.64;75.55;98462.25;4926669;29;20043;-86
2021/11/09 01:32:54;;;;;;;6.72;2.75;;;;;;;4.59;75.81;98473.13;4921510;29;20184;-88
2021/11/09 01:35:21;;;;;;;3.42;2.33;;;;;;;4.62;75.86;98469.84;4905091;29;20054;-86
2021/11/09 01:37:49;;;;;;;8.85;2.72;;;;;;;4.38;76.05;98431.25;4904618;29;20095;-87
2021/11/09 01:40:18;;;;;;;8.30;3.13;;;;;;;4.41;76.13;98446.91;4936519;29;20501;-87
2021/11/09 01:42:46;;;;;;;5.28;2.63;;;;;;;4.48;76.40;98463.56;4926548;29;20036;-89
2021/11/09 01:45:13;;;;;;;3.63;2.53;;;;;;;4.35;76.33;98457.00;4903683;29;20413;-85
2021/11/09 01:47:40;;;;;;;;;;;;;;;4.55;76.54;98472.13;4896812;29;20074;-91
2021/11/09 01:50:07;;;;;;;;;;;;;;;4.51;76.09;98481.13;4935767;29;19929;-87
2021/11/09 01:52:35;;;;;;;5.75;2.90;;;;;;;4.41;76.48;98476.66;4901480;29;19941;-87
2021/11/09 01:55:03;;;;;;;7.32;3.00;;;;;;;4.22;76.64;98446.91;4935386;29;20525;-90
2021/11/09 01:57:29;;;;;;;10.13;3.13;;;;;;;4.37;77.00;98481.03;4899446;29;20044;-87
2021/11/09 01:59:58;;;;;;;5.22;3.10;;;;;;;4.47;76.95;98494.44;4928228;29;20052;-86
2021/11/09 02:02:43;;;;;;;5.75;3.47;;;;;;;4.55;76.59;98501.88;4935123;29;20051;-86
2021/11/09 02:05:12;;;;;;;5.30;3.65;;;;;;;4.58;76.86;98500.50;4892626;29;20086;-91
2021/11/09 02:07:50;;;;;;;6.43;3.60;;;;;;;4.64;75.99;98510.16;4937594;29;20115;-91
2021/11/09 02:10:20;;;;;;;7.70;3.13;;;;;;;4.46;75.91;98501.72;4918378;29;20036;-85
2021/11/09 02:12:46;;;;;;;5.20;2.75;;;;;;;4.43;75.13;98520.47;4915261;29;20047;-86
2021/11/09 02:15:13;;;;;;;10.30;3.10;;;;;;;4.50;76.24;98520.09;4943343;29;20098;-87
2021/11/09 02:17:41;;;;;;;4.75;2.80;;;;;;;4.27;75.79;98492.81;4917171;29;20036;-87
2021/11/09 02:20:10;;;;;;;6.22;2.75;;;;;;;4.35;75.80;98532.75;4951602;29;20099;-86
2021/11/09 02:22:37;;;;;;;5.05;2.40;;;;;;;4.17;76.15;98525.41;4953262;29;20048;-86
2021/11/09 02:25:08;;;;;;;3.63;2.63;;;;;;;4.30;76.36;98550.94;4942763;29;20051;-86
2021/11/09 02:27:34;;;;;;;6.35;2.20;;;;;;;4.18;75.13;98552.19;4904417;29;20050;-88
2021/11/09 02:30:01;;;;;;;6.18;1.85;;;;;;;3.84;75.38;98556.91;4938443;29;20040;-92
2021/11/09 02:32:27;;;;;;;5.35;2.13;;;;;;;3.72;76.78;98577.03;4935525;29;20043;-90
2021/11/09 02:34:56;;;;;;;3.17;1.70;;;;;;;3.51;76.39;98581.84;4915621;29;20075;-86
2021/11/09 02:37:23;;;;;;;3.83;1.50;;;;;;;3.21;77.11;98607.22;4916460;29;20464;-88
2021/11/09 02:39:49;;;;;;;4.93;1.48;;;;;;;3.15;77.18;98592.13;4915675;29;20040;-93
2021/11/09 02:42:18;;;;;;;9.02;1.45;;;;;;;2.85;77.83;98600.44;4908225;29;20056;-85
2021/11/09 02:44:59;;;;;;;5.57;1.30;;;;;;;2.68;78.38;98607.03;4913020;29;20047;-89
2021/11/09 02:47:30;;;;;;;6.22;1.90;;;;;;;2.66;78.52;98597.59;4939914;29;20055;-90
2021/11/09 02:50:10;;;;;;;3.58;1.95;;;;;;;2.62;79.08;98620.81;4904322;29;20046;-85
2021/11/09 02:52:46;;;;;;;5.07;2.28;;;;;;;2.39;79.65;98595.31;4938268;29;20075;-93
2021/11/09 02:55:13;;;;;;;4.03;1.98;;;;;;;2.56;79.68;98636.22;4937617;29;20111;-85
2021/11/09 02:58:02;;;;;;;;;;;;;;;2.42;79.59;98627.09;4903514;29;20054;-84
2021/11/09 03:00:34;;;;;;;2.58;1.58;;;;;;;2.28;79.71;98630.38;4902056;29;19930;-93
2021/11/09 03:03:08;;;;;;;13.80;2.30;;;;;;;2.43;79.90;98644.91;4902588;29;20048;-84
2021/11/09 03:05:47;;;;;;;3.90;1.95;;;;;;;2.40;79.99;98651.66;4935890;29;20048;-86
2021/11/09 03:10:49;;;;;;;3.55;1.67;;;;;;;2.09;79.94;98659.84;4937336;29;20035;-86
2021/11/09 03:13:15;;;;;;;11.90;1.90;;;;;;;1.95;80.57;98637.22;4933910;29;20040;-91
2021/11/09 03:15:42;;;;;;;9.07;1.98;;;;;;;2.14;80.48;98669.00;4934398;29;20175;-88
2021/11/09 03:18:13;;;;;;;8.82;2.00;;;;;;;2.07;80.20;98651.22;4898503;29;20160;-90
2021/11/09 03:40:05;;;;;;;3.03;1.50;;;;;;;2.08;80.92;98735.59;4909010;29;20067;-89
2021/11/09 03:45:28;;;;;;;5.38;1.35;;;;;;;1.97;80.76;98736.69;4920355;29;20142;-87
2021/11/09 03:48:07;;;;;;;9.10;1.33;;;;;;;2.11;80.83;98773.59;4919023;29;20075;-90
2021/11/09 03:50:36;;;;;;;3.55;1.50;;;;;;;2.09;80.78;98773.06;4929780;29;20051;-84
2021/11/09 03:53:08;;;;;;;5.45;1.77;;;;;;;2.06;80.47;98789.78;4905267;29;20047;-85
2021/11/09 04:00:50;;;;;;;3.13;1.70;;;;;;;1.79;81.96;98800.84;4906223;29;20048;-87
2021/11/09 04:11:34;;;;;;;2.97;1.65;;;;;;;1.90;80.55;98811.63;4924755;29;20076;-86
2021/11/09 04:27:50;;;;;;;8.38;2.88;;;;;;;1.76;81.33;98849.88;4903509;29;20048;-84
2021/11/09 04:30:47;;;;;;;12.13;2.50;;;;;;;1.63;81.47;98831.53;4929861;29;20640;-83
2021/11/09 04:42:44;;;;;;;3.25;1.70;;;;;;;1.77;80.71;98932.31;4930559;29;20052;-78
2021/11/09 05:09:30;;;;;;;4.78;2.53;;;;;;;1.75;79.49;98995.63;4914027;29;20044;-75
2021/11/09 05:11:56;;;;;;;7.18;2.70;;;;;;;1.68;78.24;99000.44;4915486;29;20100;-76
2021/11/09 05:14:22;;;;;;;3.70;1.50;;;;;;;1.58;78.23;99001.22;4915307;29;20044;-77
2021/11/09 05:16:49;;;;;;;8.85;1.67;;;;;;;1.48;77.76;98993.06;4914959;29;20044;-83
2021/11/09 05:19:14;;;;;;;6.63;1.70;;;;;;;1.69;78.21;99020.91;4914448;29;20048;-83
2021/11/09 05:21:41;;;;;;;16.90;3.72;;;;;;;1.71;77.53;99022.28;4914616;29;20036;-76
2021/11/09 05:24:08;;;;;;;11.15;2.22;;;;;;;1.51;78.42;99033.75;4914428;29;20048;-82
2021/11/09 05:26:41;;;;;;;9.60;2.20;;;;;;;1.64;78.96;99045.97;4914221;29;20055;-80
2021/11/09 05:29:08;;;;;;;6.80;2.75;;;;;;;1.64;78.74;99064.81;4913897;29;20043;-74
2021/11/09 05:31:34;;;;;;;7.90;3.20;;;;;;;1.57;79.40;99061.56;4913853;29;20048;-85
2021/11/09 05:34:02;;;;;;;16.58;4.25;;;;;;;1.60;80.13;99061.84;4913070;29;20046;-79
2021/11/09 05:36:39;;;;;;;8.77;3.88;;;;;;;1.63;78.37;99074.00;4913779;29;20095;-77
2021/11/09 05:41:39;;;;;;;15.52;4.07;;;;;;;1.67;78.34;99110.13;4912996;29;20056;-77
2021/11/09 05:44:09;;;;;;;16.83;4.70;;;;;;;1.76;77.88;99102.38;4912530;29;20055;-83
2021/11/09 05:46:39;;;;;;;28.55;4.68;;;;;;;1.72;77.03;99104.75;4912593;29;20046;-75
2021/11/09 05:49:05;;;;;;;14.27;5.60;;;;;;;1.80;76.77;99111.53;4912451;29;20048;-83
2021/11/09 05:51:32;;;;;;;14.70;5.30;;;;;;;1.89;76.41;99115.38;4912652;29;20052;-77
2021/11/09 05:54:00;;;;;;;33.20;5.40;;;;;;;1.93;75.22;99121.06;4931215;29;20051;-75
2021/11/09 05:56:27;;;;;;;17.30;5.95;;;;;;;1.87;76.09;99123.72;4931209;29;20047;-88
2021/11/09 05:58:53;;;;;;;36.07;6.40;;;;;;;1.80;75.02;99157.34;4913297;29;20502;-77
2021/11/09 06:01:22;;;;;;;26.77;6.20;;;;;;;1.61;75.64;99138.88;4948257;29;20133;-75
2021/11/09 06:03:47;;;;;;;20.73;6.72;;;;;;;1.67;75.69;99139.75;4948749;28;20041;-85
2021/11/09 06:06:15;;;;;;;26.95;7.35;;;;;;;1.60;75.32;99148.06;4954534;29;20058;-76
2021/11/09 06:08:42;;;;;;;31.53;7.17;;;;;;;1.55;74.66;99166.84;4954817;28;20051;-87
2021/11/09 06:11:09;;;;;;;32.05;8.55;;;;;;;1.59;75.26;99157.22;4954750;28;20377;-85
2021/11/09 06:13:35;;;;;;;19.60;7.43;;;;;;;1.55;74.60;99149.88;4953116;29;20035;-77
2021/11/09 06:16:02;;;;;;;22.08;6.30;;;;;;;1.50;73.88;99199.16;4952987;29;20137;-85
2021/11/09 06:18:27;;;;;;;20.73;6.60;;;;;;;1.53;72.29;99200.53;4954091;28;20151;-86
2021/11/09 06:20:53;;;;;;;31.38;8.35;;;;;;;1.43;71.87;99211.22;4954300;28;20083;-86
2021/11/09 06:23:19;;;;;;;49.42;8.30;;;;;;;1.38;72.03;99203.88;4954308;28;20043;-84
2021/11/09 06:25:46;;;;;;;16.15;6.88;;;;;;;1.42;71.67;99215.78;4954028;29;20140;-84
2021/11/09 06:28:14;;;;;;;37.15;8.02;;;;;;;1.55;72.76;99215.34;4953569;29;20131;-77
2021/11/09 06:30:40;;;;;;;44.45;8.98;;;;;;;1.43;71.34;99220.09;4954247;28;20130;-81
2021/11/09 06:33:08;;;;;;;30.20;9.20;;;;;;;1.52;71.41;99231.22;4954170;28;20125;-86
2021/11/09 06:35:34;;;;;;;24.98;6.85;;;;;;;1.58;70.00;99233.69;4955402;28;20047;-86
2021/11/09 06:38:00;;;;;;;21.75;7.88;;;;;;;1.57;70.37;99234.78;4940379;28;20127;-84
2021/11/09 06:40:26;;;;;;;24.02;6.75;;;;;;;1.57;70.33;99253.63;4918534;29;20045;-82
2021/11/09 06:42:52;;;;;;;29.63;7.30;;;;;;;1.48;71.74;99243.56;4921379;29;20046;-85
2021/11/09 06:45:18;;;;;;;34.58;10.00;;;;;;;1.57;72.20;99261.72;4935691;29;20035;-85
2021/11/09 06:47:45;;;;;;;41.63;12.05;;;;;;;1.47;73.92;99260.81;4934264;29;20044;-76
2021/11/09 06:50:12;;;;;;;31.20;10.73;;;;;;;1.39;74.42;99286.31;4929679;29;20638;-82
2021/11/09 06:52:37;;;;;;;27.90;10.90;;;;;;;1.34;74.59;99267.41;4932851;29;20101;-79
2021/11/09 06:55:06;;;;;;;38.15;12.07;;;;;;;1.37;74.16;99291.16;4915385;29;20087;-82
2021/11/09 06:57:32;;;;;;;;;;;;;;;1.37;72.43;99283.88;4924293;29;20138;-84
2021/11/09 06:59:59;;;;;;;29.42;9.32;;;;;;;1.46;72.77;99292.31;4922467;29;20059;-77
2021/11/09 07:02:30;;;;;;;22.70;8.03;;;;;;;1.29;71.16;99338.19;4932649;29;20043;-84
2021/11/09 07:04:56;;;;;;;28.60;9.13;;;;;;;1.24;70.89;99313.09;4946740;29;20437;-81
2021/11/09 07:07:22;;;;;;;19.48;7.57;;;;;;;1.03;71.44;99339.75;4914759;29;20048;-83
2021/11/09 07:09:50;;;;;;;25.98;8.27;;;;;;;1.07;71.25;99326.63;4922648;29;20039;-79
2021/11/09 07:12:16;;;;;;;34.38;8.85;;;;;;;0.99;71.23;99341.31;4932657;29;20134;-80
2021/11/09 07:14:44;;;;;;;14.73;7.32;;;;;;;0.93;71.00;99331.56;4930583;29;20146;-81
2021/11/09 07:17:11;;;;;;;18.77;7.90;;;;;;;0.91;71.23;99363.28;4924520;29;20122;-80
2021/11/09 07:19:37;;;;;;;;;;;;;;;0.95;71.73;99361.72;4924232;29;20044;-76
2021/11/09 07:22:04;;;;;;;20.13;6.65;;;;;;;0.93;70.38;99361.16;4914817;29;19979;-77
2021/11/09 07:24:31;;;;;;;34.63;6.50;;;;;;;0.92;69.94;99372.97;4915251;29;20413;-85
2021/11/09 07:26:58;;;;;;;28.10;8.88;;;;;;;0.92;70.63;99376.47;4946415;29;20039;-88
2021/11/09 07:29:25;;;;;;;21.77;6.40;;;;;;;0.83;70.06;99396.81;4953479;29;20047;-84
2021/11/09 07:31:54;;;;;;;18.57;5.87;;;;;;;0.78;70.31;99371.69;4953489;29;20091;-80
2021/11/09 07:34:21;;;;;;;22.27;6.72;;;;;;;1.00;68.88;99410.25;4950332;28;20055;-81
2021/11/09 07:36:47;;;;;;;20.27;6.32;;;;;;;0.81;68.29;99412.38;4953164;28;20394;-86
2021/11/09 07:39:13;;;;;;;19.27;6.70;;;;;;;0.87;68.45;99424.03;4947145;28;20107;-87
2021/11/09 07:41:40;;;;;;;14.18;4.75;;;;;;;0.75;66.54;99421.44;4951532;28;20444;-77
2021/11/09 07:44:08;;;;;;;15.57;4.80;;;;;;;0.72;67.08;99437.25;4934272;29;20048;-77
2021/11/09 07:46:37;;;;;;;9.93;3.55;;;;;;;0.57;65.41;99445.91;4933980;29;20086;-75
2021/11/09 07:49:04;;;;;;;19.75;3.90;;;;;;;0.65;66.21;99448.19;4934235;29;20505;-85
2021/11/09 07:51:32;;;;;;;19.15;5.40;;;;;;;0.49;67.56;99471.31;4939224;29;20523;-78
2021/11/09 07:54:00;;;;;;;19.45;6.22;;;;;;;0.65;68.50;99475.09;4955472;29;20047;-81
2021/11/09 07:56:32;;;;;;;30.52;6.65;;;;;;;0.65;68.36;99475.91;4956810;28;20051;-78
2021/11/09 07:59:12;;;;;;;12.05;4.00;;;;;;;0.68;68.83;99486.16;4956321;28;20050;-78
2021/11/09 08:04:12;;;;;;;44.75;7.80;;;;;;;0.62;69.34;99494.41;4956239;28;20043;-76
2021/11/09 08:11:50;;;;;;;14.98;6.38;;;;;;;0.37;68.96;99500.16;4957051;28;20043;-77
2021/11/09 08:14:16;;;;;;;27.15;5.18;;;;;;;0.47;67.77;99532.63;4956790;28;20509;-76
2021/11/09 08:16:47;;;;;;;92.05;5.82;;;;;;;0.39;67.47;99523.03;4956368;29;20520;-78
2021/11/09 08:19:14;;;;;;;25.98;4.32;;;;;;;0.31;67.36;99546.84;4956384;28;20043;-76
2021/11/09 08:21:41;;;;;;;26.73;5.43;;;;;;;0.35;67.77;99573.00;4956257;28;20039;-77
2021/11/09 08:24:08;;;;;;;46.17;7.87;;;;;;;0.42;67.94;99568.28;4956460;28;20097;-85
2021/11/09 08:26:37;;;;;;;32.53;5.68;;;;;;;0.30;67.19;99547.88;4956163;29;20425;-76
2021/11/09 08:29:04;;;;;;;13.32;4.50;;;;;;;0.36;67.17;99571.13;4956084;28;20039;-77
2021/11/09 08:31:32;;;;;;;;;;;;;;;0.30;66.76;99582.81;4956706;28;20047;-76
2021/11/09 08:33:59;;;;;;;17.88;4.82;;;;;;;0.42;67.05;99586.28;4956217;29;20347;-77
2021/11/09 08:36:31;;;;;;;18.13;4.38;;;;;;;0.26;66.34;99604.00;4958680;28;20126;-77
2021/11/09 08:39:06;;;;;;;23.58;4.82;;;;;;;0.23;66.58;99581.13;4961641;29;20505;-79
2021/11/09 08:41:46;;;;;;;12.88;4.65;;;;;;;0.25;66.46;99594.31;4963397;28;20110;-78
2021/11/09 08:44:21;;;;;;;36.80;4.80;;;;;;;0.34;65.75;99600.13;4969697;28;20528;-76
2021/11/09 08:46:53;;;;;;;20.73;3.67;;;;;;;0.22;65.25;99597.47;4972207;29;20040;-78
2021/11/09 08:49:20;;;;;;;56.30;4.45;;;;;;;0.21;65.46;99612.78;4970426;29;20298;-80
2021/11/09 08:51:50;;;;;;;20.17;3.65;;;;;;;0.17;64.77;99613.50;4972624;28;20162;-90
2021/11/09 08:54:23;;;;;;;20.23;3.05;;;;;;;-0.04;65.07;99602.31;4961073;28;20047;-91
2021/11/09 08:56:59;;;;;;;16.52;3.72;;;;;;;0.06;65.05;99623.22;4959286;29;20050;-89
2021/11/09 09:04:56;;;;;;;12.32;3.20;;;;;;;0.05;64.95;99634.22;4940299;29;20050;-88
2021/11/09 09:07:29;;;;;;;11.27;3.20;;;;;;;0.18;64.84;99663.53;4955762;29;20059;-81
2021/11/09 09:09:57;;;;;;;38.83;3.58;;;;;;;0.16;64.21;99655.69;4954894;29;20073;-90
2021/11/09 09:12:24;;;;;;;11.57;4.00;;;;;;;-0.04;64.55;99642.63;4954746;29;20047;-92
2021/11/09 09:14:52;;;;;;;16.23;3.80;;;;;;;0.16;65.14;99677.19;4956032;29;20043;-82
2021/11/09 09:17:19;;;;;;;13.55;3.78;;;;;;;-0.01;64.60;99666.34;4923504;29;20050;-87
2021/11/09 09:20:11;;;;;;;17.35;4.70;;;;;;;0.16;65.19;99654.88;4955997;29;20039;-88
2021/11/09 09:23:02;;;;;;;13.23;3.28;;;;;;;0.24;63.91;99662.59;4955871;29;20054;-87
2021/11/09 09:25:31;;;;;;;19.15;3.40;;;;;;;0.33;63.68;99679.16;4955936;28;20067;-85
2021/11/09 09:30:59;;;;;;;7.70;3.10;;;;;;;0.16;62.92;99681.75;4954942;29;20106;-83
2021/11/09 09:52:02;;;;;;;16.83;2.97;;;;;;;-0.03;62.37;99668.47;4955024;28;20043;-88
2021/11/09 09:55:54;;;;;;;29.23;6.88;;;;;;;0.20;62.25;99712.50;4954565;29;20178;-82
2021/11/09 09:58:20;;;;;;;11.52;3.00;;;;;;;0.12;61.25;99716.34;4954515;28;20047;-85
2021/11/09 10:00:48;;;;;;;5.47;2.20;;;;;;;0.13;61.38;99731.44;4954610;29;20452;-77
2021/11/09 10:03:14;;;;;;;11.23;3.08;;;;;;;0.19;61.68;99748.50;4954550;28;20039;-81
2021/11/09 10:05:42;;;;;;;7.45;2.42;;;;;;;0.32;59.96;99736.69;4954151;28;20062;-77
2021/11/09 10:08:13;;;;;;;9.18;3.08;;;;;;;0.33;59.74;99733.78;4954485;28;20058;-84
2021/11/09 10:10:44;;;;;;;15.77;2.63;;;;;;;0.14;59.37;99759.16;4953984;28;20051;-87
2021/11/09 10:13:20;;;;;;;11.02;2.30;;;;;;;0.03;60.40;99760.75;4954070;28;20126;-84
2021/11/09 10:15:52;;;;;;;;;;;;;;;0.01;60.24;99768.25;4954698;29;20138;-75
2021/11/09 10:18:20;;;;;;;11.43;2.78;;;;;;;0.01;59.56;99754.00;4955719;28;19997;-86
2021/11/09 10:20:54;;;;;;;14.25;3.45;;;;;;;0.07;60.79;99758.44;4955655;28;20049;-79
2021/11/09 10:23:27;;;;;;;13.13;4.03;;;;;;;0.09;60.63;99775.13;4955812;28;20046;-81
2021/11/09 10:26:07;;;;;;;15.05;3.20;;;;;;;0.25;59.94;99785.19;4955733;28;20047;-85
2021/11/09 10:28:34;;;;;;;10.35;3.47;;;;;;;0.26;59.67;99792.19;4954849;29;20043;-81
2021/11/09 10:31:04;;;;;;;21.40;3.92;;;;;;;0.29;60.07;99793.63;4954687;28;20081;-76
2021/11/09 10:33:41;;;;;;;19.88;3.15;;;;;;;0.39;58.88;99791.97;4937166;29;20035;-78
2021/11/09 10:36:24;;;;;;;8.77;2.67;;;;;;;0.36;58.91;99800.50;4953974;28;20536;-77
2021/11/09 10:38:50;;;;;;;11.63;3.15;;;;;;;0.42;58.44;99809.50;4954157;28;20082;-77
2021/11/09 10:41:17;;;;;;;6.60;2.97;;;;;;;0.35;58.35;99812.31;4954045;28;20043;-77
2021/11/09 10:43:43;;;;;;;;;;;;;;;0.28;58.76;99845.75;4954680;28;20043;-79
2021/11/09 10:46:29;;;;;;;15.40;3.78;;;;;;;0.34;58.38;99823.31;4952766;29;20311;-77
2021/11/09 10:48:57;;;;;;;29.90;4.38;;;;;;;0.44;59.20;99819.00;4954020;28;20050;-77
2021/11/09 10:51:24;;;;;;;19.30;4.43;;;;;;;0.49;58.24;99839.81;4953656;28;20042;-77
2021/11/09 10:53:58;;;;;;;9.05;2.90;;;;;;;0.52;57.00;99835.81;4953890;28;20051;-77
2021/11/09 10:56:45;;;;;;;10.10;2.65;;;;;;;0.36;56.70;99834.66;4953708;28;20043;-83
2021/11/09 11:04:36;;;;;;;13.07;3.88;;;;;;;0.31;57.65;99882.94;4952725;29;20047;-78
2021/11/09 11:07:07;;;;;;;6.30;2.80;;;;;;;0.27;57.18;99879.09;4953930;29;20052;-77
2021/11/09 11:09:36;;;;;;;5.53;2.45;;;;;;;0.27;56.93;99868.34;4953614;28;20077;-77
2021/11/09 11:12:10;;;;;;;10.27;2.50;;;;;;;0.23;56.93;99900.22;4953832;28;20050;-77
2021/11/09 11:14:42;;;;;;;25.92;3.53;;;;;;;0.19;56.95;99883.72;4953504;29;20040;-77
2021/11/09 11:17:11;;;;;;;31.02;3.45;;;;;;;0.21;57.28;99903.16;4953658;29;20130;-85
2021/11/09 11:19:47;;;;;;;12.57;2.80;;;;;;;0.10;56.35;99892.34;4953624;29;20039;-85
2021/11/09 11:22:16;;;;;;;14.65;2.28;;;;;;;0.13;56.74;99918.78;4955016;28;20055;-86
2021/11/09 11:24:44;;;;;;;13.82;2.30;;;;;;;0.12;55.15;99923.34;4957237;29;20051;-84
2021/11/09 11:27:14;;;;;;;10.55;2.33;;;;;;;0.04;55.80;99893.31;4958472;29;20070;-85
2021/11/09 11:29:40;;;;;;;6.57;2.95;;;;;;;-0.02;56.91;99909.28;4941265;29;20047;-86
2021/11/09 11:32:13;;;;;;;12.60;3.30;;;;;;;0.31;57.17;99947.50;4942578;29;20054;-84
2021/11/09 11:34:40;;;;;;;27.67;3.47;;;;;;;0.21;56.18;99943.47;4910204;29;20572;-84
2021/11/09 11:37:09;;;;;;;8.82;2.42;;;;;;;-0.36;55.50;99902.72;4906698;29;20051;-85
2021/11/09 11:39:38;;;;;;;11.60;2.53;;;;;;;-0.39;55.34;99921.16;4937279;29;20042;-85
2021/11/09 11:42:11;;;;;;;;;;;;;;;-0.03;54.78;99976.72;4906278;29;20094;-84
2021/11/09 11:44:42;;;;;;;20.20;2.92;;;;;;;-0.35;55.41;99936.59;4939477;29;19922;-85
2021/11/09 11:47:18;;;;;;;12.77;2.30;;;;;;;-0.28;55.94;99952.63;4907410;29;20043;-92
2021/11/09 11:49:53;;;;;;;11.52;2.67;;;;;;;-0.15;56.39;100000.84;4939005;29;20130;-83
2021/11/09 11:52:52;;;;;;;5.18;2.72;;;;;;;-0.32;55.71;99989.06;4939539;29;20038;-85
2021/11/09 11:55:26;;;;;;;4.18;2.28;;;;;;;-0.13;55.54;100005.97;4934522;29;20048;-84
2021/11/09 11:57:59;;;;;;;10.45;2.38;;;;;;;-0.20;56.29;100024.03;4906904;29;20505;-85
2021/11/09 12:00:38;;;;;;;22.95;3.33;;;;;;;-0.22;56.41;100001.97;4937697;29;20171;-85
2021/11/09 12:03:25;;;;;;;19.67;3.10;;;;;;;-0.50;55.65;99965.69;4904440;29;20417;-86
2021/11/09 12:05:58;;;;;;;7.32;2.05;;;;;;;-0.09;55.04;100029.50;4937965;29;20138;-86
2021/11/09 12:08:48;;;;;;;7.70;2.28;;;;;;;-0.25;55.68;100024.72;4938616;29;20048;-81
2021/11/09 12:11:36;;;;;;;16.00;3.28;;;;;;;-0.05;56.53;100044.13;4937102;29;20494;-84
2021/11/09 12:14:06;;;;;;;9.15;2.90;;;;;;;-0.01;57.08;100065.97;4938144;29;20514;-81
2021/11/09 12:17:02;;;;;;;14.63;3.10;;;;;;;-0.03;55.43;100062.72;4938153;29;20043;-81
2021/11/09 12:19:34;;;;;;;15.18;2.60;;;;;;;-0.04;56.34;100077.19;4928497;29;20052;-84
2021/11/09 12:22:06;;;;;;;10.45;2.75;;;;;;;-0.07;55.73;100077.63;4937932;29;20042;-83
2021/11/09 12:24:52;;;;;;;14.25;2.30;;;;;;;-0.04;55.94;100063.75;4920922;29;20509;-84
2021/11/09 12:27:21;;;;;;;19.08;2.95;;;;;;;-0.06;56.16;100084.66;4923503;29;20480;-83
2021/11/09 12:29:48;;;;;;;18.10;3.10;;;;;;;-0.08;55.89;100073.31;4942826;29;20040;-82
2021/11/09 12:32:32;;;;;;;22.33;2.78;;;;;;;-0.08;55.58;100101.00;4941635;29;20040;-83
2021/11/09 12:35:05;;;;;;;22.95;2.88;;;;;;;-0.19;55.88;100117.06;4938466;29;20115;-83
2021/11/09 12:37:34;;;;;;;11.18;2.05;;;;;;;-0.36;55.48;100088.09;4906195;29;20043;-84
2021/11/09 12:40:25;;;;;;;13.57;2.35;;;;;;;-0.17;55.93;100107.72;4938255;29;20036;-83
2021/11/09 12:43:06;;;;;;;31.73;3.00;;;;;;;-0.16;55.37;100122.81;4905793;29;20134;-83
2021/11/09 12:45:34;;;;;;;23.17;3.13;;;;;;;-0.15;56.57;100119.06;4938129;29;20518;-84
2021/11/09 12:48:00;;;;;;;;;;;;;;;-0.16;55.89;100135.44;4904712;29;20130;-82
2021/11/09 12:50:27;;;;;;;19.23;1.90;;;;;;;-0.32;55.79;100129.56;4937224;29;19927;-84
2021/11/09 12:53:08;;;;;;;15.82;3.33;;;;;;;-0.30;55.98;100123.97;4937013;29;20053;-82
2021/11/09 12:55:36;;;;;;;12.98;3.20;;;;;;;-0.37;56.64;100121.34;4937322;29;20382;-83
2021/11/09 12:58:34;;;;;;;;;;;;;;;-0.34;56.28;100149.63;4937330;29;20046;-81
2021/11/09 13:04:15;;;;;;;22.65;3.30;;;;;;;-0.33;57.07;100157.50;4859653;29;20512;-83
2021/11/09 13:06:52;;;;;;;23.67;3.67;;;;;;;-0.35;57.41;100169.50;4858887;29;20064;-83
2021/11/09 13:09:28;;;;;;;12.20;2.63;;;;;;;-0.48;57.23;100143.56;4859350;29;20479;-84
2021/11/09 13:12:15;;;;;;;12.20;2.45;;;;;;;-0.33;57.47;100170.91;4857022;29;20050;-88
2021/11/09 13:14:50;;;;;;;12.63;1.75;;;;;;;-0.64;57.53;100154.84;4846478;29;20060;-85
2021/11/09 13:17:37;;;;;;;30.27;2.50;;;;;;;-0.47;58.46;100172.06;4815704;29;20393;-84
2021/11/09 13:20:22;;;;;;;7.20;2.05;;;;;;;-0.49;58.06;100177.66;4842510;29;20037;-81
2021/11/09 13:23:20;;;;;;;7.78;2.22;;;;;;;-0.37;59.09;100188.50;4848492;29;20056;-84
2021/11/09 13:25:58;;;;;;;10.88;2.13;;;;;;;-0.39;58.50;100193.28;4854166;29;20052;-84
2021/11/09 13:28:33;;;;;;;17.23;2.70;;;;;;;-0.34;58.74;100185.38;4825876;29;20536;-83
2021/11/09 13:31:07;;;;;;;22.55;2.28;;;;;;;-0.53;59.15;100187.22;4846294;29;20117;-81
2021/11/09 13:33:42;;;;;;;14.93;2.33;;;;;;;-0.37;59.37;100193.06;4860445;29;20052;-82
2021/11/09 13:36:16;;;;;;;18.05;2.47;;;;;;;-0.36;59.19;100200.91;4840368;29;20064;-83
2021/11/09 13:38:43;;;;;;;9.73;2.97;;;;;;;-0.41;59.80;100235.66;4920674;29;20051;-83
2021/11/09 13:41:29;;;;;;;10.48;2.60;;;;;;;-0.44;59.39;100213.78;4925991;29;20394;-80
2021/11/09 13:43:58;;;;;;;14.15;3.05;;;;;;;-0.44;59.36;100229.91;4928159;29;20114;-82
2021/11/09 13:46:31;;;;;;;16.20;2.88;;;;;;;-0.32;59.41;100239.72;4935885;29;20113;-82
2021/11/09 13:49:06;;;;;;;11.40;2.58;;;;;;;-0.34;58.96;100236.41;4935804;29;20031;-82
2021/11/09 13:51:48;;;;;;;20.33;3.28;;;;;;;-0.31;59.07;100254.78;4934933;29;20044;-82
2021/11/09 13:54:24;;;;;;;8.18;2.63;;;;;;;-0.34;59.22;100238.28;4930825;29;20040;-82
2021/11/09 13:56:55;;;;;;;9.85;2.35;;;;;;;-0.26;58.77;100252.28;4936582;29;20086;-82
2021/11/09 13:59:27;;;;;;;20.30;3.45;;;;;;;-0.42;59.65;100252.00;4934541;29;20047;-88
2021/11/09 14:13:22;;;;;;;11.38;2.10;;;;;;;-0.27;58.90;100292.78;4922197;29;20052;-80
2021/11/09 14:18:35;;;;;;;13.82;2.75;;;;;;;-0.33;58.83;100289.13;4919803;29;20068;-81
2021/11/09 14:21:05;;;;;;;2.45;1.38;;;;;;;-0.18;58.73;100304.09;4915739;29;20044;-83